createdAt,value
2018-01-15T00:02:00.595Z,0
2018-01-15T00:07:00.644Z,0
2018-01-15T00:12:00.494Z,0
2018-01-15T00:17:00.368Z,0
2018-01-15T00:22:00.308Z,0
2018-01-15T00:27:00.271Z,0
2018-01-15T00:32:00.159Z,0
2018-01-15T00:37:00.075Z,0
2018-01-15T00:42:00.032Z,0
2018-01-15T00:46:59.946Z,0
2018-01-15T00:51:59.889Z,0
2018-01-15T00:56:59.852Z,0
2018-01-15T01:01:59.738Z,0
2018-01-15T01:06:59.645Z,0
2018-01-15T01:11:59.568Z,0
2018-01-15T01:16:59.561Z,0
2018-01-15T01:21:59.416Z,0
2018-01-15T01:26:59.348Z,0
2018-01-15T01:31:59.326Z,0
2018-01-15T01:36:59.276Z,0
2018-01-15T01:41:59.266Z,0
2018-01-15T01:46:59.092Z,0
2018-01-15T01:51:58.979Z,0
2018-01-15T01:56:58.912Z,0
2018-01-15T02:01:58.942Z,0
2018-01-15T02:06:58.734Z,0
2018-01-15T02:11:58.666Z,0
2018-01-15T02:16:58.639Z,0
2018-01-15T02:21:58.510Z,0
2018-01-15T02:26:58.492Z,0
2018-01-15T02:31:58.366Z,0
2018-01-15T02:36:58.342Z,0
2018-01-15T02:41:58.246Z,0
2018-01-15T02:46:58.180Z,0
2018-01-15T02:51:58.068Z,0
2018-01-15T02:56:58.000Z,0
2018-01-15T03:01:57.897Z,0
2018-01-15T03:06:57.814Z,0
2018-01-15T03:11:57.763Z,0
2018-01-15T03:16:57.677Z,0
2018-01-15T03:21:57.597Z,0
2018-01-15T03:26:57.525Z,0
2018-01-15T03:31:57.546Z,0
2018-01-15T03:36:57.431Z,0
2018-01-15T03:41:57.303Z,0
2018-01-15T03:46:57.226Z,0
2018-01-15T03:51:57.215Z,0
2018-01-15T03:56:57.073Z,0
2018-01-15T04:01:57.061Z,0
2018-01-15T04:06:56.962Z,0
2018-01-15T04:11:56.857Z,0
2018-01-15T04:16:56.761Z,0
2018-01-15T04:21:56.682Z,0
2018-01-15T04:26:56.606Z,0
2018-01-15T04:31:56.535Z,0
2018-01-15T04:36:56.478Z,0
2018-01-15T04:41:56.386Z,0
2018-01-15T04:46:56.309Z,0
2018-01-15T04:51:56.220Z,0
2018-01-15T04:56:56.150Z,0
2018-01-15T05:01:56.092Z,0
2018-01-15T05:06:55.992Z,0
2018-01-15T05:11:55.962Z,0
2018-01-15T05:16:55.848Z,0
2018-01-15T05:21:55.767Z,0
2018-01-15T05:26:55.723Z,0
2018-01-15T05:31:55.677Z,0
2018-01-15T05:36:55.616Z,0
2018-01-15T05:41:55.269Z,0
2018-01-15T05:46:55.423Z,0
2018-01-15T05:51:55.060Z,0
2018-01-15T05:56:55.249Z,0
2018-01-15T06:01:55.226Z,0
2018-01-15T06:06:55.106Z,0
2018-01-15T06:11:55.014Z,0
2018-01-15T06:16:54.934Z,0
2018-01-15T06:21:54.920Z,0
2018-01-15T06:26:54.778Z,0
2018-01-15T06:31:54.861Z,0
2018-01-15T06:36:54.713Z,0
2018-01-15T06:41:54.624Z,0
2018-01-15T06:46:54.535Z,0
2018-01-15T06:51:54.422Z,0
2018-01-15T06:56:54.408Z,0
2018-01-15T07:01:54.299Z,0
2018-01-15T07:06:54.223Z,0
2018-01-15T07:11:54.222Z,0
2018-01-15T07:16:53.782Z,0
2018-01-15T07:21:53.966Z,0
2018-01-15T07:26:53.917Z,0
2018-01-15T07:31:53.835Z,0
2018-01-15T07:36:53.819Z,0
2018-01-15T07:41:53.784Z,0
2018-01-15T07:46:53.619Z,0
2018-01-15T07:51:53.548Z,0
2018-01-15T07:56:53.248Z,0
2018-01-15T08:01:53.457Z,0
2018-01-15T08:06:53.334Z,0
2018-01-15T08:11:53.254Z,0
2018-01-15T08:16:53.183Z,0
2018-01-15T08:21:53.118Z,4
2018-01-15T08:26:53.041Z,4
2018-01-15T08:31:53.039Z,4
2018-01-15T08:36:52.904Z,4
2018-01-15T08:41:52.837Z,4
2018-01-15T08:46:52.532Z,8
2018-01-15T08:51:52.723Z,4
2018-01-15T08:56:52.656Z,4
2018-01-15T09:01:52.559Z,4
2018-01-15T09:06:52.505Z,8
2018-01-15T09:11:52.421Z,8
2018-01-15T09:16:52.418Z,4
2018-01-15T09:21:52.261Z,8
2018-01-15T09:26:52.217Z,8
2018-01-15T09:31:52.161Z,8
2018-01-15T09:36:52.053Z,12
2018-01-15T09:41:52.009Z,12
2018-01-15T09:46:51.934Z,12
2018-01-15T09:51:51.845Z,16
2018-01-15T09:56:51.770Z,12
2018-01-15T10:01:51.756Z,16
2018-01-15T10:06:51.693Z,12
2018-01-15T10:11:51.613Z,20
2018-01-15T10:16:51.550Z,16
2018-01-15T10:21:51.417Z,24
2018-01-15T10:26:51.394Z,16
2018-01-15T10:31:51.307Z,20
2018-01-15T10:36:51.209Z,16
2018-01-15T10:41:51.258Z,16
2018-01-15T10:46:51.073Z,20
2018-01-15T10:51:50.987Z,20
2018-01-15T10:56:50.924Z,20
2018-01-15T11:01:50.861Z,28
2018-01-15T11:06:50.865Z,28
2018-01-15T11:11:50.713Z,32
2018-01-15T11:16:50.689Z,40
2018-01-15T11:21:50.705Z,44
2018-01-15T11:26:50.496Z,44
2018-01-15T11:31:50.430Z,48
2018-01-15T11:36:50.426Z,48
2018-01-15T11:41:50.331Z,52
2018-01-15T11:46:50.216Z,36
2018-01-15T11:51:50.226Z,36
2018-01-15T11:56:50.108Z,60
2018-01-15T12:01:50.001Z,40
2018-01-15T12:06:49.941Z,36
2018-01-15T12:11:49.905Z,36
2018-01-15T12:16:49.807Z,52
2018-01-15T12:21:49.753Z,40
2018-01-15T12:26:49.743Z,16
2018-01-15T12:31:49.591Z,12
2018-01-15T12:36:49.521Z,20
2018-01-15T12:41:49.501Z,16
2018-01-15T12:46:49.384Z,12
2018-01-15T12:51:49.386Z,20
2018-01-15T12:56:49.382Z,20
2018-01-15T13:01:49.224Z,20
2018-01-15T13:06:49.093Z,24
2018-01-15T13:11:49.043Z,24
2018-01-15T13:16:48.976Z,24
2018-01-15T13:21:48.897Z,20
2018-01-15T13:26:48.847Z,16
2018-01-15T13:31:48.752Z,20
2018-01-15T13:36:48.756Z,24
2018-01-15T13:41:48.636Z,16
2018-01-15T13:46:48.546Z,12
2018-01-15T13:51:48.488Z,8
2018-01-15T13:56:48.476Z,12
2018-01-15T14:01:48.399Z,12
2018-01-15T14:06:48.310Z,12
2018-01-15T14:11:48.188Z,12
2018-01-15T14:16:48.142Z,4
2018-01-15T14:21:48.074Z,8
2018-01-15T14:26:48.072Z,4
2018-01-15T14:31:47.987Z,12
2018-01-15T14:36:47.976Z,4
2018-01-15T14:41:47.835Z,8
2018-01-15T14:46:47.754Z,4
2018-01-15T14:51:47.374Z,4
2018-01-15T14:56:47.613Z,8
2018-01-15T15:01:47.505Z,8
2018-01-15T15:06:47.528Z,4
2018-01-15T15:11:47.168Z,4
2018-01-15T15:16:47.279Z,4
2018-01-15T15:21:47.233Z,4
2018-01-15T15:26:46.922Z,0
2018-01-15T15:31:47.071Z,4
2018-01-15T15:36:47.003Z,0
2018-01-15T15:41:47.018Z,4
2018-01-15T15:46:46.865Z,4
2018-01-15T15:51:46.802Z,4
2018-01-15T15:56:46.722Z,0
2018-01-15T16:01:46.657Z,0
2018-01-15T16:06:46.599Z,0
2018-01-15T16:11:46.537Z,0
2018-01-15T16:16:46.464Z,0
2018-01-15T16:21:46.379Z,0
2018-01-15T16:26:46.326Z,0
2018-01-15T16:31:46.269Z,0
2018-01-15T16:36:46.203Z,0
2018-01-15T16:41:46.171Z,0
2018-01-15T16:46:46.095Z,0
2018-01-15T16:51:46.059Z,0
2018-01-15T16:56:46.018Z,0
2018-01-15T17:01:45.933Z,0
2018-01-15T17:06:45.782Z,0
2018-01-15T17:11:45.718Z,0
2018-01-15T17:16:45.698Z,0
2018-01-15T17:21:45.582Z,0
2018-01-15T17:26:45.521Z,0
2018-01-15T17:31:45.449Z,0
2018-01-15T17:36:45.439Z,0
2018-01-15T17:41:45.333Z,0
2018-01-15T17:46:45.266Z,0
2018-01-15T17:51:45.184Z,0
2018-01-15T17:56:45.143Z,0
2018-01-15T18:01:45.079Z,0
2018-01-15T18:06:45.009Z,0
2018-01-15T18:11:44.926Z,0
2018-01-15T18:16:44.916Z,0
2018-01-15T18:21:44.826Z,0
2018-01-15T18:26:44.750Z,0
2018-01-15T18:31:44.739Z,0
2018-01-15T18:36:44.889Z,0
2018-01-15T18:41:44.570Z,0
2018-01-15T18:46:44.505Z,0
2018-01-15T18:51:44.440Z,0
2018-01-15T18:56:44.114Z,0
2018-01-15T19:01:44.334Z,0
2018-01-15T19:06:44.377Z,0
2018-01-15T19:11:44.325Z,0
2018-01-15T19:16:44.175Z,0
2018-01-15T19:21:44.057Z,0
2018-01-15T19:26:44.010Z,0
2018-01-15T19:31:44.040Z,0
2018-01-15T19:36:43.913Z,0
2018-01-15T19:41:43.856Z,0
2018-01-15T19:46:43.756Z,0
2018-01-15T19:51:43.726Z,0
2018-01-15T19:56:43.670Z,0
2018-01-15T20:01:43.710Z,0
2018-01-15T20:06:43.613Z,0
2018-01-15T20:11:43.471Z,0
2018-01-15T20:16:43.356Z,0
2018-01-15T20:21:43.315Z,0
2018-01-15T20:26:43.245Z,0
2018-01-15T20:31:43.181Z,0
2018-01-15T20:36:43.129Z,0
2018-01-15T20:41:43.037Z,0
2018-01-15T20:46:43.002Z,0
2018-01-15T20:51:42.932Z,0
2018-01-15T20:56:42.875Z,0
2018-01-15T21:01:42.821Z,0
2018-01-15T21:06:42.739Z,0
2018-01-15T21:11:42.751Z,0
2018-01-15T21:16:42.605Z,0
2018-01-15T21:21:42.543Z,0
2018-01-15T21:26:42.477Z,0
2018-01-15T21:31:42.433Z,0
2018-01-15T21:36:42.353Z,0
2018-01-15T21:41:42.296Z,0
2018-01-15T21:46:42.257Z,0
2018-01-15T21:51:42.179Z,0
2018-01-15T21:56:42.125Z,0
2018-01-15T22:01:42.868Z,0
2018-01-15T22:06:42.166Z,0
2018-01-15T22:11:41.932Z,0
2018-01-15T22:16:41.867Z,0
2018-01-15T22:21:41.863Z,0
2018-01-15T22:26:41.884Z,0
2018-01-15T22:31:41.780Z,0
2018-01-15T22:36:41.602Z,0
2018-01-15T22:41:41.556Z,0
2018-01-15T22:46:41.512Z,0
2018-01-15T22:51:41.419Z,0
2018-01-15T22:56:41.370Z,0
2018-01-15T23:01:41.304Z,0
2018-01-15T23:06:41.219Z,0
2018-01-15T23:11:41.182Z,0
2018-01-15T23:16:41.114Z,0
2018-01-15T23:21:41.128Z,0
2018-01-15T23:26:41.010Z,0
2018-01-15T23:31:40.890Z,0
2018-01-15T23:36:40.840Z,0
2018-01-15T23:41:40.758Z,0
2018-01-15T23:46:40.754Z,0
2018-01-15T23:51:40.655Z,0
2018-01-15T23:56:40.569Z,0
